Time;durP1;ratioP1;P1;durP2;ratioP2;P2;SDS_P1;SDS_P2;PMS_P1;PMS_P2;Temp;Humidity;BMP_temperature;BMP_pressure;BME280_temperature;BME280_humidity;BME280_pressure;Samples;Min_cycle;Max_cycle;Signal;HPM_P1;HPM_P2
2024/02/17 00:02:18;;;;;;;19.63;7.47;;;;;;;-5.42;70.50;100884.91;4997041;28;20776;-50
2024/02/17 00:04:44;;;;;;;19.35;7.55;;;;;;;-5.84;70.46;100817.84;5001172;28;20425;-48
2024/02/17 00:07:10;;;;;;;19.23;6.78;;;;;;;-5.45;70.70;100889.84;4994640;28;20057;-51
2024/02/17 00:09:36;;;;;;;19.30;7.47;;;;;;;-5.41;70.64;100891.72;5000741;28;20591;-52
2024/02/17 00:12:02;;;;;;;21.27;7.90;;;;;;;-5.40;71.05;100888.41;5001377;28;20128;-51
2024/02/17 00:14:28;;;;;;;23.55;8.20;;;;;;;-5.34;70.66;100887.81;4997009;28;20045;-47
2024/02/17 00:16:54;;;;;;;19.10;7.85;;;;;;;-5.34;70.44;100882.75;4976827;28;20049;-48
2024/02/17 00:19:20;;;;;;;23.35;8.23;;;;;;;-5.29;70.84;100879.66;4987846;28;20042;-52
2024/02/17 00:21:46;;;;;;;19.70;7.80;;;;;;;-5.38;70.74;100848.78;5000240;28;20045;-50
2024/02/17 00:24:12;;;;;;;22.58;7.90;;;;;;;-5.17;70.82;100872.59;4961265;28;20366;-48
2024/02/17 00:26:38;;;;;;;16.20;7.68;;;;;;;-5.23;70.52;100879.91;4992811;28;20049;-47
2024/02/17 00:29:04;;;;;;;12.77;6.13;;;;;;;-5.12;70.42;100876.22;5000499;28;20180;-51
2024/02/17 00:31:30;;;;;;;14.20;6.35;;;;;;;-5.19;70.08;100865.75;4996104;28;20050;-50
2024/02/17 00:33:56;;;;;;;16.95;6.85;;;;;;;-5.43;70.23;100839.22;4994520;28;20768;-49
2024/02/17 00:36:22;;;;;;;15.18;7.13;;;;;;;-5.29;70.92;100863.56;4978063;28;20042;-51
2024/02/17 00:38:48;;;;;;;15.70;6.25;;;;;;;-5.71;70.85;100793.97;4998060;28;20053;-49
2024/02/17 00:41:14;;;;;;;23.05;9.20;;;;;;;-5.32;70.64;100858.34;4993558;28;20053;-49
2024/02/17 00:43:40;;;;;;;20.38;8.02;;;;;;;-5.37;70.67;100847.13;4998742;28;20071;-49
2024/02/17 00:46:06;;;;;;;22.33;9.15;;;;;;;-5.44;70.98;100818.06;4999583;28;20824;-50
2024/02/17 00:48:32;;;;;;;19.95;7.43;;;;;;;-5.20;70.52;100844.59;4998857;28;20392;-46
2024/02/17 00:50:58;;;;;;;21.05;7.85;;;;;;;-5.18;70.44;100840.44;4993728;28;20053;-47
2024/02/17 00:53:24;;;;;;;20.65;8.07;;;;;;;-5.14;71.26;100849.97;4982442;28;20081;-48
2024/02/17 00:55:51;;;;;;;19.70;8.52;;;;;;;-5.20;71.24;100842.06;4998041;28;20064;-49
2024/02/17 00:58:17;;;;;;;19.10;7.03;;;;;;;-5.16;71.09;100851.53;4999215;28;20046;-50
2024/02/17 01:00:42;;;;;;;19.23;8.15;;;;;;;-5.06;71.08;100850.28;4999123;28;20136;-48
2024/02/17 01:03:11;;;;;;;21.77;9.00;;;;;;;-5.11;70.71;100849.22;5013441;28;20037;-46
2024/02/17 01:05:38;;;;;;;23.77;8.93;;;;;;;-4.95;71.21;100849.13;4990473;28;20042;-49
2024/02/17 01:08:08;;;;;;;23.08;8.68;;;;;;;-5.02;70.78;100809.06;4978201;28;20042;-49
2024/02/17 01:10:34;;;;;;;17.17;5.90;;;;;;;-4.87;70.40;100834.28;4963647;28;20048;-48
2024/02/17 01:13:01;;;;;;;17.65;7.60;;;;;;;-5.01;70.14;100832.75;4995269;28;20075;-47
2024/02/17 01:15:27;;;;;;;18.95;7.60;;;;;;;-5.03;70.66;100826.75;4995405;28;20048;-50
2024/02/17 01:17:54;;;;;;;20.67;8.23;;;;;;;-5.06;70.04;100826.59;4998059;28;20181;-52
2024/02/17 01:20:20;;;;;;;22.23;7.82;;;;;;;-5.13;70.15;100823.78;5004332;28;20053;-52
2024/02/17 01:22:46;;;;;;;21.55;7.57;;;;;;;-5.34;70.64;100789.84;4983185;28;20038;-51
2024/02/17 01:25:12;;;;;;;17.67;7.85;;;;;;;-5.05;70.64;100824.16;4996883;28;20092;-50
2024/02/17 01:27:39;;;;;;;19.60;8.23;;;;;;;-5.05;70.53;100823.28;5004505;28;20264;-48
2024/02/17 01:30:05;;;;;;;14.18;6.32;;;;;;;-5.05;70.58;100801.34;4997307;28;20053;-51
2024/02/17 01:32:31;;;;;;;24.27;8.02;;;;;;;-5.48;70.49;100739.31;4979001;28;20034;-51
2024/02/17 01:34:57;;;;;;;24.48;7.80;;;;;;;-5.17;71.11;100800.75;4964936;28;20053;-48
2024/02/17 01:37:22;;;;;;;24.00;9.05;;;;;;;-5.10;71.02;100802.78;5004381;28;20112;-47
2024/02/17 01:39:48;;;;;;;19.70;8.00;;;;;;;-5.20;70.69;100772.75;4981975;28;20148;-49
2024/02/17 01:42:14;;;;;;;15.95;6.32;;;;;;;-5.26;70.91;100754.72;4982970;28;20037;-57
2024/02/17 01:44:40;;;;;;;19.23;8.10;;;;;;;-5.10;70.53;100801.91;4995969;28;20061;-48
2024/02/17 01:47:06;;;;;;;20.95;8.60;;;;;;;-5.06;70.80;100796.19;4966663;28;20037;-49
2024/02/17 01:49:32;;;;;;;22.42;8.10;;;;;;;-5.08;70.75;100785.13;5002330;28;20125;-48
2024/02/17 01:51:59;;;;;;;26.98;8.07;;;;;;;-5.07;71.03;100780.09;4996961;28;20137;-49
2024/02/17 01:54:25;;;;;;;17.80;7.43;;;;;;;-5.09;70.74;100778.31;4997781;28;20041;-49
2024/02/17 01:56:51;;;;;;;16.48;7.30;;;;;;;-5.14;70.72;100780.63;4980874;28;20053;-48
2024/02/17 01:59:17;;;;;;;24.55;8.93;;;;;;;-5.33;70.81;100742.56;5002119;28;20041;-49
2024/02/17 02:01:46;;;;;;;21.65;6.78;;;;;;;-5.09;70.82;100781.72;4995758;28;20056;-52
2024/02/17 02:04:12;;;;;;;24.25;8.48;;;;;;;-5.09;70.55;100774.09;4989580;28;20048;-47
2024/02/17 02:06:38;;;;;;;16.65;7.30;;;;;;;-4.99;70.58;100778.81;5000352;28;20054;-50
2024/02/17 02:09:04;;;;;;;22.92;7.55;;;;;;;-5.32;70.33;100734.16;5001584;28;20132;-47
2024/02/17 02:11:30;;;;;;;24.15;8.38;;;;;;;-5.07;70.69;100771.63;4995169;28;20144;-48
2024/02/17 02:14:19;;;;;;;19.85;7.55;;;;;;;-5.35;70.48;100728.97;4998898;28;20506;-47
2024/02/17 02:16:48;;;;;;;19.10;7.80;;;;;;;-5.21;71.12;100738.94;4998199;28;20093;-53
2024/02/17 02:19:14;;;;;;;19.75;8.02;;;;;;;-4.95;70.94;100775.59;4980618;28;20050;-48
2024/02/17 02:21:41;;;;;;;21.52;8.25;;;;;;;-4.91;70.81;100762.25;4980064;28;20035;-48
2024/02/17 02:24:10;;;;;;;17.33;7.20;;;;;;;-4.93;71.16;100768.06;4995807;28;20077;-49
2024/02/17 02:26:36;;;;;;;20.75;8.07;;;;;;;-4.95;70.56;100770.53;5002128;28;20764;-51
2024/02/17 02:29:02;;;;;;;16.92;7.45;;;;;;;-4.90;70.82;100774.13;5000419;28;20120;-48
2024/02/17 02:31:29;;;;;;;21.13;8.15;;;;;;;-4.84;70.82;100766.78;4996551;28;20038;-49
2024/02/17 02:33:55;;;;;;;20.50;8.70;;;;;;;-4.80;70.97;100755.97;4997774;28;20048;-49
2024/02/17 02:36:21;;;;;;;20.65;6.97;;;;;;;-4.69;70.94;100766.59;5000220;28;20055;-48
2024/02/17 02:38:47;;;;;;;20.80;7.63;;;;;;;-4.72;70.60;100769.00;4996351;28;20081;-47
2024/02/17 02:41:14;;;;;;;16.98;8.20;;;;;;;-4.79;70.54;100762.78;4989060;28;20066;-50
2024/02/17 02:43:40;;;;;;;18.55;7.85;;;;;;;-4.81;70.70;100766.03;4997126;28;20084;-46
2024/02/17 02:46:06;;;;;;;18.60;8.40;;;;;;;-4.86;70.58;100767.50;4997851;28;20048;-46
2024/02/17 02:48:35;;;;;;;17.70;6.82;;;;;;;-4.83;70.21;100763.47;4997630;28;20046;-47
2024/02/17 02:51:01;;;;;;;21.25;8.50;;;;;;;-4.84;70.77;100764.25;4992740;28;20601;-51
2024/02/17 02:53:27;;;;;;;17.65;7.88;;;;;;;-5.08;70.74;100712.47;4996596;28;20537;-49
2024/02/17 02:55:53;;;;;;;18.27;6.95;;;;;;;-4.89;70.55;100750.50;4998867;28;20042;-48
2024/02/17 02:58:19;;;;;;;15.70;6.47;;;;;;;-4.98;71.37;100747.56;4997186;28;20053;-51
2024/02/17 03:00:46;;;;;;;23.33;8.75;;;;;;;-4.97;71.44;100751.81;4996083;28;20072;-47
2024/02/17 03:03:14;;;;;;;14.70;6.88;;;;;;;-4.95;71.11;100749.38;4998888;28;20426;-47
2024/02/17 03:05:40;;;;;;;21.45;8.85;;;;;;;-4.96;71.64;100751.03;4992297;28;20134;-46
2024/02/17 03:08:06;;;;;;;22.48;8.52;;;;;;;-4.91;71.07;100743.63;4996991;28;20136;-49
2024/02/17 03:10:32;;;;;;;15.82;7.50;;;;;;;-5.12;71.29;100702.97;5000652;28;20426;-51
2024/02/17 03:12:58;;;;;;;19.75;7.72;;;;;;;-4.90;71.13;100733.56;4996833;28;20050;-47
2024/02/17 03:15:24;;;;;;;19.27;7.88;;;;;;;-5.07;71.18;100708.25;4964878;28;20083;-52
2024/02/17 03:17:54;;;;;;;14.23;6.60;;;;;;;-4.87;71.18;100736.25;4974789;28;20557;-49
2024/02/17 03:20:23;;;;;;;15.00;7.18;;;;;;;-4.88;71.08;100736.16;4949906;28;20185;-49
2024/02/17 03:22:49;;;;;;;15.48;7.18;;;;;;;-4.93;71.67;100719.88;4998551;28;20088;-51
2024/02/17 03:25:17;;;;;;;20.00;7.97;;;;;;;-5.01;71.28;100691.66;4994667;28;20050;-52
2024/02/17 03:27:42;;;;;;;16.48;6.97;;;;;;;-4.88;71.74;100719.28;4996770;28;20049;-50
2024/02/17 03:30:08;;;;;;;16.10;6.47;;;;;;;-4.93;71.24;100714.81;4979690;28;20038;-49
2024/02/17 03:32:34;;;;;;;13.93;6.05;;;;;;;-4.91;71.52;100709.00;4997776;28;20046;-49
2024/02/17 03:35:03;;;;;;;26.08;9.00;;;;;;;-4.90;71.73;100700.59;4997217;28;20073;-51
2024/02/17 03:37:30;;;;;;;19.40;7.53;;;;;;;-5.00;71.96;100680.72;4997591;28;20045;-49
2024/02/17 03:39:56;;;;;;;18.95;8.57;;;;;;;-5.03;72.21;100672.97;4998850;28;20072;-47
2024/02/17 03:42:22;;;;;;;19.00;5.50;;;;;;;-4.82;71.61;100703.47;5000539;28;20509;-49
2024/02/17 03:44:48;;;;;;;18.13;7.90;;;;;;;-4.73;72.04;100698.78;4992355;28;20069;-46
2024/02/17 03:47:14;;;;;;;21.38;9.00;;;;;;;-4.69;71.96;100695.56;5001022;28;20049;-47
2024/02/17 03:49:40;;;;;;;17.77;6.60;;;;;;;-4.74;71.81;100689.44;4995811;28;20050;-51
2024/02/17 03:52:07;;;;;;;18.63;6.82;;;;;;;-4.82;72.04;100690.78;4978902;28;20074;-46
2024/02/17 03:54:33;;;;;;;15.75;5.40;;;;;;;-5.12;72.32;100637.94;4996881;28;20052;-51
2024/02/17 03:56:59;;;;;;;17.65;7.70;;;;;;;-4.79;72.67;100680.75;4994465;28;20054;-46
2024/02/17 03:59:25;;;;;;;16.92;7.43;;;;;;;-4.82;72.46;100678.09;4982283;28;20136;-47
2024/02/17 04:01:55;;;;;;;14.98;6.13;;;;;;;-4.85;71.78;100671.22;4986769;28;20395;-48
2024/02/17 04:04:24;;;;;;;18.92;7.53;;;;;;;-4.84;72.90;100679.69;4995612;28;20165;-48
2024/02/17 04:06:50;;;;;;;18.98;7.47;;;;;;;-4.85;72.24;100663.63;4978955;28;20372;-48
2024/02/17 04:09:15;;;;;;;17.73;6.97;;;;;;;-4.81;72.80;100667.13;4997299;28;21392;-50
2024/02/17 04:11:42;;;;;;;22.67;7.85;;;;;;;-4.79;72.49;100657.94;4992094;28;20046;-49
2024/02/17 04:14:08;;;;;;;18.92;7.28;;;;;;;-4.77;72.79;100657.22;4979899;28;20714;-52
2024/02/17 04:16:34;;;;;;;18.50;7.55;;;;;;;-4.80;72.25;100648.59;4981571;28;20034;-50
2024/02/17 04:19:00;;;;;;;19.75;7.22;;;;;;;-4.80;72.33;100663.81;4976260;28;20562;-50
2024/02/17 04:21:26;;;;;;;18.83;7.78;;;;;;;-4.73;72.74;100654.00;4994912;28;20578;-53
2024/02/17 04:23:52;;;;;;;17.70;7.18;;;;;;;-4.66;72.71;100655.13;4993119;28;20042;-46
2024/02/17 04:26:18;;;;;;;13.32;6.57;;;;;;;-4.89;72.58;100620.31;4998334;28;20038;-47
2024/02/17 04:28:45;;;;;;;20.25;8.20;;;;;;;-4.72;72.75;100639.66;5000897;28;20042;-49
2024/02/17 04:31:12;;;;;;;21.17;8.32;;;;;;;-4.68;73.03;100638.09;4977579;28;20038;-47
2024/02/17 04:33:38;;;;;;;15.52;6.28;;;;;;;-4.95;73.07;100577.81;4997777;28;20057;-47
2024/02/17 04:36:05;;;;;;;20.15;8.13;;;;;;;-4.66;72.90;100624.69;4981662;28;20057;-46
2024/02/17 04:38:31;;;;;;;21.02;7.75;;;;;;;-4.68;73.04;100620.34;4993175;28;20092;-51
2024/02/17 04:40:57;;;;;;;16.17;7.05;;;;;;;-4.71;72.53;100613.47;4999419;28;20597;-48
2024/02/17 04:43:23;;;;;;;15.52;6.85;;;;;;;-4.71;73.60;100618.56;4996911;28;20046;-50
2024/02/17 04:45:49;;;;;;;22.05;9.02;;;;;;;-4.63;72.72;100618.84;4972149;28;20049;-48
2024/02/17 04:48:16;;;;;;;15.77;7.15;;;;;;;-4.62;72.75;100621.47;4989541;28;20046;-49
2024/02/17 04:50:42;;;;;;;20.95;7.70;;;;;;;-4.59;73.05;100625.78;4999128;28;20042;-47
2024/02/17 04:53:08;;;;;;;22.35;7.68;;;;;;;-4.65;73.16;100616.25;4991397;28;20052;-50
2024/02/17 04:55:34;;;;;;;16.85;7.40;;;;;;;-4.58;72.46;100618.25;4998944;28;20569;-48
2024/02/17 04:57:59;;;;;;;24.15;9.57;;;;;;;-4.46;73.02;100612.81;4983780;28;20127;-47
2024/02/17 05:00:26;;;;;;;17.25;7.25;;;;;;;-4.44;72.76;100606.09;4997474;28;20073;-47
2024/02/17 05:02:51;;;;;;;21.13;8.77;;;;;;;-4.39;72.62;100607.16;4989514;28;20050;-47
2024/02/17 05:05:19;;;;;;;18.83;7.70;;;;;;;-4.37;72.91;100603.88;5002754;28;20034;-48
2024/02/17 05:07:46;;;;;;;23.00;7.90;;;;;;;-4.39;72.56;100602.06;5005304;28;20046;-48
2024/02/17 05:10:12;;;;;;;14.75;6.63;;;;;;;-4.31;72.28;100599.06;5002349;28;20042;-48
2024/02/17 05:12:39;;;;;;;19.85;8.00;;;;;;;-4.32;72.27;100594.78;5000881;28;20069;-52
2024/02/17 05:15:05;;;;;;;19.98;8.48;;;;;;;-4.29;72.17;100592.34;5005307;28;20494;-46
2024/02/17 05:17:32;;;;;;;14.35;6.18;;;;;;;-4.72;72.20;100517.91;5004911;28;20038;-49
2024/02/17 05:19:58;;;;;;;16.48;7.57;;;;;;;-4.28;72.46;100591.53;4987445;28;20058;-52
2024/02/17 05:22:24;;;;;;;18.67;8.52;;;;;;;-4.25;72.21;100590.81;5005692;28;20060;-56
2024/02/17 05:24:51;;;;;;;20.50;9.35;;;;;;;-4.11;72.35;100591.34;5003423;28;20049;-47
2024/02/17 05:27:17;;;;;;;15.23;6.18;;;;;;;-3.95;71.99;100592.00;5004170;28;20092;-47
2024/02/17 05:29:43;;;;;;;21.63;7.88;;;;;;;-3.93;72.00;100584.44;4999267;28;20049;-51
2024/02/17 05:32:08;;;;;;;20.65;8.43;;;;;;;-3.88;71.96;100583.81;5005525;28;20514;-48
2024/02/17 05:34:35;;;;;;;20.30;8.43;;;;;;;-3.80;71.49;100585.75;4981303;28;20046;-48
2024/02/17 05:37:02;;;;;;;21.88;8.35;;;;;;;-3.70;71.38;100583.59;5003882;28;20092;-46
2024/02/17 05:39:27;;;;;;;17.77;6.55;;;;;;;-3.68;71.36;100576.06;4988356;28;20045;-50
2024/02/17 05:41:53;;;;;;;17.40;7.05;;;;;;;-3.68;71.02;100576.06;5004796;28;20041;-48
2024/02/17 05:44:20;;;;;;;16.65;8.20;;;;;;;-3.62;71.55;100588.97;4986504;28;20046;-47
2024/02/17 05:46:46;;;;;;;17.40;8.13;;;;;;;-3.57;71.00;100552.75;5001133;28;20087;-49
2024/02/17 05:49:12;;;;;;;17.02;7.82;;;;;;;-3.38;70.63;100578.81;4972271;28;20042;-50
2024/02/17 05:51:38;;;;;;;22.00;8.02;;;;;;;-3.38;70.47;100583.91;5004996;28;20120;-51
2024/02/17 05:54:03;;;;;;;18.38;8.65;;;;;;;-3.61;70.21;100550.91;4994470;28;20157;-48
2024/02/17 05:56:29;;;;;;;21.23;7.50;;;;;;;-3.45;70.47;100576.06;4995593;28;20418;-50
2024/02/17 05:58:55;;;;;;;16.27;5.80;;;;;;;-3.47;70.06;100581.91;5014144;28;20053;-49
2024/02/17 06:01:21;;;;;;;16.83;6.93;;;;;;;-3.47;70.09;100574.28;5000406;28;20048;-50
2024/02/17 06:03:47;;;;;;;21.65;8.70;;;;;;;-3.58;69.99;100550.16;5002707;28;20046;-46
2024/02/17 06:06:13;;;;;;;24.30;8.88;;;;;;;-3.37;69.78;100578.88;5002083;28;20065;-49
2024/02/17 06:08:39;;;;;;;19.88;7.38;;;;;;;-3.33;69.37;100575.63;5011307;28;20057;-51
2024/02/17 06:11:05;;;;;;;19.08;7.70;;;;;;;-3.31;69.70;100580.78;4997838;28;20034;-50
2024/02/17 06:13:31;;;;;;;23.30;9.57;;;;;;;-3.47;69.36;100547.19;4996860;28;20052;-45
2024/02/17 06:15:57;;;;;;;20.75;8.60;;;;;;;-3.19;69.66;100578.69;5003871;28;20034;-54
2024/02/17 06:21:11;;;;;;;20.42;8.07;;;;;;;-3.14;68.70;100570.38;5000834;28;20038;-51
2024/02/17 06:23:37;;;;;;;20.38;7.20;;;;;;;-3.30;68.94;100527.47;4998080;28;20427;-53
2024/02/17 06:26:03;;;;;;;21.33;8.23;;;;;;;-3.19;68.74;100533.75;5001446;28;20038;-48
2024/02/17 06:28:29;;;;;;;18.95;7.60;;;;;;;-3.02;68.57;100536.84;5000553;28;20078;-47
2024/02/17 06:30:55;;;;;;;18.92;7.93;;;;;;;-2.73;68.20;100558.19;5000893;28;20038;-51
2024/02/17 06:33:21;;;;;;;17.58;6.97;;;;;;;-2.65;67.84;100562.72;4999622;28;20065;-48
2024/02/17 06:35:47;;;;;;;16.42;7.78;;;;;;;-2.57;68.13;100560.44;4998443;28;20906;-49
2024/02/17 06:38:15;;;;;;;17.48;7.63;;;;;;;-2.47;67.70;100552.25;4996263;28;20120;-49
2024/02/17 06:40:42;;;;;;;31.45;8.95;;;;;;;-2.61;67.22;100505.13;4980806;28;20050;-49
2024/02/17 06:43:07;;;;;;;15.43;7.95;;;;;;;-2.47;67.02;100526.81;4995750;28;20046;-48
2024/02/17 06:45:34;;;;;;;15.07;7.45;;;;;;;-2.43;66.97;100510.78;5002068;28;20061;-52
2024/02/17 06:48:00;;;;;;;19.95;7.35;;;;;;;-2.24;66.55;100550.41;4996784;28;20549;-52
2024/02/17 06:50:26;;;;;;;16.20;6.80;;;;;;;-2.64;66.83;100485.53;4995113;28;20129;-53
2024/02/17 06:52:52;;;;;;;16.13;6.85;;;;;;;-2.18;66.56;100560.78;5000572;28;20046;-49
2024/02/17 06:55:18;;;;;;;18.50;8.35;;;;;;;-2.34;66.61;100549.25;5000804;28;20128;-52
2024/02/17 06:57:44;;;;;;;16.73;7.38;;;;;;;-2.32;66.54;100541.69;4979521;28;20042;-50
2024/02/17 07:00:11;;;;;;;16.98;7.95;;;;;;;-2.20;66.62;100540.34;4992001;28;20057;-50
2024/02/17 07:02:37;;;;;;;17.77;7.75;;;;;;;-2.18;66.34;100536.19;5000388;28;20037;-50
2024/02/17 07:05:03;;;;;;;22.58;7.43;;;;;;;-2.20;66.55;100540.34;5007678;28;20049;-49
2024/02/17 07:07:29;;;;;;;14.52;7.38;;;;;;;-2.65;66.21;100465.13;5003553;28;20542;-50
2024/02/17 07:09:56;;;;;;;19.25;7.18;;;;;;;-2.21;66.09;100525.91;4998833;28;20038;-52
2024/02/17 07:12:23;;;;;;;21.65;8.50;;;;;;;-2.42;66.24;100486.22;5000666;28;20065;-54
2024/02/17 07:14:50;;;;;;;17.92;7.13;;;;;;;-2.26;66.30;100494.34;4979823;28;20046;-51
2024/02/17 07:17:16;;;;;;;15.13;7.05;;;;;;;-2.10;66.15;100517.72;4994303;28;20062;-49
2024/02/17 07:19:42;;;;;;;11.38;6.18;;;;;;;-2.47;66.12;100452.09;4980478;28;20046;-52
2024/02/17 07:22:08;;;;;;;16.83;6.22;;;;;;;-2.49;66.13;100441.88;4954361;28;20049;-53
2024/02/17 07:24:34;;;;;;;21.00;7.45;;;;;;;-2.25;66.03;100464.66;5001392;28;20092;-50
2024/02/17 07:27:00;;;;;;;18.08;7.00;;;;;;;-1.89;66.01;100493.75;4994851;28;20049;-48
2024/02/17 07:29:26;;;;;;;18.35;7.28;;;;;;;-1.73;66.02;100495.88;4997165;28;20045;-48
2024/02/17 07:31:52;;;;;;;14.80;6.72;;;;;;;-1.67;65.55;100482.44;4979349;28;20044;-51
2024/02/17 07:34:18;;;;;;;22.73;8.02;;;;;;;-1.81;65.50;100458.25;4999575;28;20433;-49
2024/02/17 07:36:46;;;;;;;20.20;6.75;;;;;;;-1.43;65.51;100472.03;4991634;28;20100;-48
2024/02/17 07:39:12;;;;;;;13.60;6.47;;;;;;;-1.52;64.92;100479.47;4973153;28;20033;-49
2024/02/17 07:41:37;;;;;;;17.25;7.40;;;;;;;-1.49;65.15;100460.00;4999687;28;20087;-50
2024/02/17 07:44:08;;;;;;;15.20;6.38;;;;;;;-1.36;65.05;100451.81;4982651;28;20069;-49
2024/02/17 07:46:35;;;;;;;21.00;7.53;;;;;;;-1.16;64.55;100459.13;4996318;28;20042;-51
2024/02/17 07:49:02;;;;;;;14.35;7.13;;;;;;;-1.19;64.37;100461.59;4998714;28;20038;-47
2024/02/17 07:51:28;;;;;;;16.73;6.18;;;;;;;-1.25;64.39;100453.78;4980171;28;20042;-50
2024/02/17 07:53:55;;;;;;;22.08;7.90;;;;;;;-1.32;64.49;100402.66;4985084;28;20510;-48
2024/02/17 07:56:21;;;;;;;19.40;8.00;;;;;;;-1.11;63.98;100442.25;4992268;28;20054;-52
2024/02/17 07:58:47;;;;;;;20.02;8.25;;;;;;;-1.10;64.21;100414.19;4988035;28;20810;-47
2024/02/17 08:01:13;;;;;;;20.58;7.75;;;;;;;-0.96;63.64;100443.50;4992094;28;20050;-48
2024/02/17 08:03:41;;;;;;;15.95;6.97;;;;;;;-1.02;64.05;100430.59;5006044;28;20042;-52
2024/02/17 08:06:07;;;;;;;25.05;7.03;;;;;;;-0.86;64.04;100419.03;5000228;28;20053;-49
2024/02/17 08:08:33;;;;;;;14.43;6.80;;;;;;;-0.86;63.66;100426.69;5007358;28;20074;-47
2024/02/17 08:10:59;;;;;;;19.88;7.20;;;;;;;-0.89;63.93;100421.53;4991178;28;20901;-53
2024/02/17 08:13:26;;;;;;;17.58;7.03;;;;;;;-0.72;63.97;100421.91;4993008;28;20084;-49
2024/02/17 08:15:52;;;;;;;15.52;6.22;;;;;;;-0.71;63.59;100414.28;4977174;28;20103;-55
2024/02/17 08:18:18;;;;;;;13.70;6.13;;;;;;;-0.71;63.44;100410.88;4974222;28;20050;-53
2024/02/17 08:20:44;;;;;;;13.73;6.38;;;;;;;-0.73;63.34;100413.38;4992043;28;20038;-49
2024/02/17 08:23:10;;;;;;;16.30;7.15;;;;;;;-0.64;63.17;100407.63;4987531;28;20511;-49
2024/02/17 08:25:36;;;;;;;18.55;7.43;;;;;;;-0.57;62.83;100406.91;4962030;28;20073;-50
2024/02/17 08:28:02;;;;;;;19.85;6.82;;;;;;;-0.34;62.84;100398.06;5000085;28;20498;-51
2024/02/17 08:30:28;;;;;;;21.52;7.72;;;;;;;0.03;62.18;100391.13;4986374;28;20180;-51
2024/02/17 08:32:56;;;;;;;21.75;7.60;;;;;;;0.20;61.62;100361.63;4976912;28;20510;-50
2024/02/17 08:35:22;;;;;;;18.33;6.38;;;;;;;0.68;60.55;100387.22;4998746;28;20042;-48
2024/02/17 08:37:48;;;;;;;17.83;6.88;;;;;;;0.55;60.24;100357.13;5003908;28;20041;-51
2024/02/17 08:40:14;;;;;;;12.00;5.90;;;;;;;0.61;59.63;100383.69;4977237;28;20050;-53
2024/02/17 08:42:40;;;;;;;15.35;6.50;;;;;;;0.84;59.16;100389.16;4970231;28;20045;-52
2024/02/17 08:45:06;;;;;;;18.83;7.20;;;;;;;1.26;58.88;100371.00;5000205;28;20478;-52
2024/02/17 08:47:32;;;;;;;16.52;6.90;;;;;;;2.01;57.76;100349.75;5002337;28;20045;-51
2024/02/17 08:49:58;;;;;;;13.85;5.97;;;;;;;2.26;56.60;100382.50;4978404;28;20068;-48
2024/02/17 08:52:24;;;;;;;13.48;5.78;;;;;;;2.19;55.98;100378.16;5002139;28;20034;-50
2024/02/17 08:54:50;;;;;;;13.68;6.63;;;;;;;2.43;56.39;100373.25;4996624;28;20525;-53
2024/02/17 08:57:17;;;;;;;13.40;6.28;;;;;;;2.95;55.60;100363.44;4979257;28;20553;-51
2024/02/17 08:59:42;;;;;;;14.52;6.65;;;;;;;3.04;54.65;100366.06;5003016;28;20050;-53
2024/02/17 09:02:08;;;;;;;18.67;7.15;;;;;;;2.98;54.20;100351.44;4973246;28;20046;-53
2024/02/17 09:04:34;;;;;;;15.65;8.10;;;;;;;2.90;53.80;100354.81;4999096;28;20037;-45
2024/02/17 09:07:00;;;;;;;14.15;7.05;;;;;;;3.40;53.67;100355.16;4976875;28;20519;-48
2024/02/17 09:09:28;;;;;;;11.55;5.80;;;;;;;3.78;52.18;100325.31;5001492;28;20042;-52
2024/02/17 09:11:54;;;;;;;13.15;6.47;;;;;;;4.24;51.46;100341.72;4975843;28;20049;-48
2024/02/17 09:14:20;;;;;;;15.27;6.90;;;;;;;5.06;50.07;100307.38;4992850;28;20069;-51
2024/02/17 09:16:46;;;;;;;16.45;6.68;;;;;;;6.05;48.08;100338.84;4995414;28;20119;-49
2024/02/17 09:19:12;;;;;;;12.50;5.45;;;;;;;6.14;48.11;100340.50;4991610;28;20070;-57
2024/02/17 09:21:37;;;;;;;12.63;6.13;;;;;;;6.23;47.89;100333.53;5002948;28;20331;-51
2024/02/17 09:24:04;;;;;;;16.45;6.68;;;;;;;6.55;47.32;100322.97;4995933;28;20048;-49
2024/02/17 09:26:31;;;;;;;14.63;6.32;;;;;;;6.61;46.76;100319.50;4992099;28;20092;-49
2024/02/17 09:28:56;;;;;;;12.45;5.40;;;;;;;7.36;45.56;100317.06;4995298;28;20037;-51
2024/02/17 09:31:22;;;;;;;13.98;6.30;;;;;;;6.76;46.12;100278.03;4989985;28;20038;-50
2024/02/17 09:33:48;;;;;;;13.90;6.78;;;;;;;6.16;46.89;100318.97;4964514;28;20042;-50
2024/02/17 09:36:14;;;;;;;14.30;6.57;;;;;;;5.44;47.60;100302.13;4998770;28;20049;-50
2024/02/17 09:38:41;;;;;;;15.32;6.93;;;;;;;5.00;48.45;100302.22;4982338;28;20526;-51
2024/02/17 09:41:07;;;;;;;13.15;6.25;;;;;;;4.70;49.46;100295.41;4980322;28;20046;-50
2024/02/17 09:43:34;;;;;;;10.05;5.28;;;;;;;4.95;49.98;100297.09;4965278;28;20042;-50
2024/02/17 09:46:01;;;;;;;13.57;5.60;;;;;;;5.72;48.54;100282.19;4997459;28;20046;-49
2024/02/17 09:48:28;;;;;;;11.82;5.20;;;;;;;6.32;47.42;100256.03;4980132;28;20771;-54
2024/02/17 09:50:56;;;;;;;10.30;5.30;;;;;;;6.52;48.14;100283.41;4993621;28;20050;-46
2024/02/17 09:53:26;;;;;;;11.05;5.13;;;;;;;5.58;48.00;100247.88;4986472;28;20113;-50
2024/02/17 09:55:52;;;;;;;14.00;6.15;;;;;;;5.45;48.74;100271.16;4979742;28;20068;-48
2024/02/17 09:58:22;;;;;;;12.18;5.60;;;;;;;5.50;49.11;100271.97;4974645;28;20058;-51
2024/02/17 10:00:49;;;;;;;11.05;4.53;;;;;;;5.21;48.94;100278.97;4997409;28;20042;-52
2024/02/17 10:03:17;;;;;;;13.68;5.75;;;;;;;4.88;49.85;100241.28;4982542;28;20593;-48
2024/02/17 10:05:44;;;;;;;11.57;5.38;;;;;;;4.79;49.86;100235.28;4965142;28;20048;-49
2024/02/17 10:08:12;;;;;;;12.80;6.30;;;;;;;4.54;50.61;100257.66;4982225;28;20046;-53
2024/02/17 10:10:39;;;;;;;12.30;6.07;;;;;;;4.30;50.81;100232.75;4997482;28;20042;-49
2024/02/17 10:13:06;;;;;;;12.10;5.13;;;;;;;4.17;51.15;100264.50;4985991;28;20038;-53
2024/02/17 10:15:32;;;;;;;8.57;3.78;;;;;;;4.02;51.92;100256.78;4973936;28;20038;-51
2024/02/17 10:17:58;;;;;;;11.77;5.30;;;;;;;4.07;51.84;100268.81;4981979;28;20061;-53
2024/02/17 10:20:24;;;;;;;13.10;5.95;;;;;;;3.88;52.37;100210.44;4992676;28;20096;-53
2024/02/17 10:22:50;;;;;;;12.82;5.68;;;;;;;4.21;51.97;100243.06;4985712;28;20585;-53
2024/02/17 10:25:19;;;;;;;10.68;5.38;;;;;;;3.76;52.62;100213.88;5002374;28;20065;-50
2024/02/17 10:27:46;;;;;;;11.60;4.85;;;;;;;3.72;52.90;100214.72;4972409;28;20038;-56
2024/02/17 10:30:17;;;;;;;10.20;5.07;;;;;;;3.80;52.56;100230.16;4997531;28;20137;-51
2024/02/17 10:32:46;;;;;;;9.10;4.72;;;;;;;3.65;53.53;100213.00;5001006;28;20121;-55
2024/02/17 10:35:14;;;;;;;7.70;3.70;;;;;;;3.39;53.89;100218.09;4991123;28;20161;-50
2024/02/17 10:37:41;;;;;;;10.80;4.07;;;;;;;3.23;54.33;100216.31;4965382;28;20161;-52
2024/02/17 10:40:13;;;;;;;10.82;5.07;;;;;;;2.61;54.54;100186.91;4965219;28;20119;-57
2024/02/17 10:42:44;;;;;;;9.50;4.35;;;;;;;2.39;55.82;100214.13;4980558;28;20165;-54
2024/02/17 10:45:11;;;;;;;13.05;5.15;;;;;;;2.43;55.65;100203.91;4992996;28;20161;-49
2024/02/17 10:47:37;;;;;;;8.93;4.40;;;;;;;2.24;56.17;100209.75;5001649;28;20038;-52
2024/02/17 10:50:15;;;;;;;9.60;4.35;;;;;;;1.99;56.33;100182.22;4993069;28;20093;-53
2024/02/17 10:52:44;;;;;;;11.95;4.03;;;;;;;1.94;56.94;100206.94;4972366;28;20046;-51
2024/02/17 10:55:12;;;;;;;6.88;3.05;;;;;;;1.88;57.72;100187.25;4978633;28;20247;-52
2024/02/17 10:57:56;;;;;;;10.70;4.90;;;;;;;2.10;57.69;100184.00;4972330;28;20050;-51
2024/02/17 11:00:24;;;;;;;7.70;4.28;;;;;;;2.12;56.92;100102.81;4975325;28;20038;-55
2024/02/17 11:02:54;;;;;;;9.10;4.53;;;;;;;2.79;56.43;100174.16;4976112;28;20050;-53
2024/02/17 11:05:22;;;;;;;9.38;4.30;;;;;;;2.23;56.52;100150.75;4969895;28;20038;-52
2024/02/17 11:07:51;;;;;;;11.68;4.30;;;;;;;2.17;57.08;100151.56;4978487;28;20054;-52
2024/02/17 11:10:18;;;;;;;6.95;3.22;;;;;;;2.30;57.20;100180.72;4990463;28;20242;-50
2024/02/17 11:12:51;;;;;;;9.02;3.83;;;;;;;1.96;57.44;100183.03;4980288;28;20052;-50
2024/02/17 11:15:17;;;;;;;9.93;4.45;;;;;;;1.63;58.38;100147.72;4981859;28;20042;-51
2024/02/17 11:17:50;;;;;;;12.70;4.50;;;;;;;1.93;58.81;100171.91;4984860;28;20085;-48
2024/02/17 11:20:17;;;;;;;18.40;4.95;;;;;;;2.22;58.65;100170.41;4973894;28;20050;-49